Time;durP1;ratioP1;P1;durP2;ratioP2;P2;SDS_P1;SDS_P2;PMS_P1;PMS_P2;Temp;Humidity;BMP_temperature;BMP_pressure;BME280_temperature;BME280_humidity;BME280_pressure;Samples;Min_cycle;Max_cycle;Signal;HPM_P1;HPM_P2
2022/01/30 00:00:12;;;;;;;;;;;6.30;99.60;;;;;;5003217;28;19977;-66
2022/01/30 00:02:38;;;;;;;;;;;6.30;99.60;;;;;;5003028;28;20208;-66
2022/01/30 00:05:05;;;;;;;;;;;6.30;99.50;;;;;;5002107;28;19981;-65
2022/01/30 00:07:30;;;;;;;;;;;6.30;99.60;;;;;;5003087;28;19985;-66
2022/01/30 00:09:56;;;;;;;;;;;6.30;99.60;;;;;;5021131;28;19920;-65
2022/01/30 00:12:30;;;;;;;;;;;6.30;99.40;;;;;;5022531;28;19948;-66
2022/01/30 00:14:57;;;;;;;;;;;6.30;99.30;;;;;;5022806;28;19917;-66
2022/01/30 00:17:30;;;;;;;;;;;6.30;99.40;;;;;;5022665;28;19917;-65
2022/01/30 00:20:03;;;;;;;;;;;6.30;99.00;;;;;;5022617;28;19913;-66
2022/01/30 00:25:12;;;;;;;;;;;6.30;99.10;;;;;;5022633;28;19909;-66
2022/01/30 00:27:50;;;;;;;;;;;6.30;98.90;;;;;;5021422;28;20027;-66
2022/01/30 00:30:17;;;;;;;;;;;6.30;99.00;;;;;;5022540;28;20230;-66
2022/01/30 00:32:43;;;;;;;;;;;6.30;99.10;;;;;;5022282;28;19909;-66
2022/01/30 00:35:09;;;;;;;;;;;6.30;99.10;;;;;;5022593;28;20120;-65
2022/01/30 00:37:40;;;;;;;;;;;6.20;99.30;;;;;;5021283;28;20013;-66
2022/01/30 00:40:06;;;;;;;;;;;6.30;99.40;;;;;;5020520;28;20148;-65
2022/01/30 00:42:32;;;;;;;;;;;6.30;99.50;;;;;;5022181;28;19921;-66
2022/01/30 00:44:57;;;;;;;;;;;6.30;99.80;;;;;;5022517;28;20234;-66
2022/01/30 00:47:23;;;;;;;;;;;6.30;99.80;;;;;;5022314;28;20279;-66
2022/01/30 00:49:49;;;;;;;;;;;6.30;99.80;;;;;;5025249;28;19988;-66
2022/01/30 00:52:16;;;;;;;;;;;6.20;99.90;;;;;;5026090;28;20211;-66
2022/01/30 00:54:45;;;;;;;;;;;6.20;99.90;;;;;;5026274;28;20019;-66
2022/01/30 00:57:11;;;;;;;;;;;6.20;99.90;;;;;;5026325;28;20166;-66
2022/01/30 00:59:37;;;;;;;;;;;6.10;99.90;;;;;;5026380;28;19917;-66
2022/01/30 01:02:03;;;;;;;;;;;6.10;99.90;;;;;;5025954;28;19917;-66
2022/01/30 01:04:29;;;;;;;;;;;6.10;99.70;;;;;;5025360;28;19916;-66
2022/01/30 01:06:55;;;;;;;;;;;6.10;99.80;;;;;;5026532;28;19921;-66
2022/01/30 01:09:25;;;;;;;;;;;6.20;99.60;;;;;;5025730;28;19940;-65
2022/01/30 01:25:17;;;;;;;;;;;6.20;99.20;;;;;;5024675;28;19948;-66
2022/01/30 01:27:43;;;;;;;;;;;6.10;99.00;;;;;;5025805;28;20224;-66
2022/01/30 01:30:09;;;;;;;;;;;6.10;99.10;;;;;;5025736;28;19911;-66
2022/01/30 01:32:35;;;;;;;;;;;6.00;99.00;;;;;;5025427;28;19917;-66
2022/01/30 01:35:01;;;;;;;;;;;6.00;99.10;;;;;;5025705;28;19964;-67
2022/01/30 01:37:26;;;;;;;;;;;6.00;98.80;;;;;;5025436;28;20051;-66
2022/01/30 01:39:52;;;;;;;;;;;6.00;98.90;;;;;;5024661;28;20119;-66
2022/01/30 01:42:18;;;;;;;;;;;6.00;98.70;;;;;;5025211;28;19909;-67
2022/01/30 01:44:53;;;;;;;;;;;6.00;98.80;;;;;;5025438;28;19910;-66
2022/01/30 01:47:22;;;;;;;;;;;6.00;98.70;;;;;;5024238;28;19917;-66
2022/01/30 01:49:50;;;;;;;;;;;6.00;98.50;;;;;;5021267;28;19973;-66
2022/01/30 01:52:19;;;;;;;;;;;6.00;98.60;;;;;;5024608;28;20143;-66
2022/01/30 01:54:47;;;;;;;;;;;6.00;98.40;;;;;;5024010;28;19952;-66
2022/01/30 01:57:13;;;;;;;;;;;6.00;98.40;;;;;;5025160;28;20223;-66
2022/01/30 01:59:39;;;;;;;;;;;6.00;98.30;;;;;;5024687;28;19910;-66
2022/01/30 02:02:05;;;;;;;;;;;6.00;98.00;;;;;;5023777;28;19917;-66
2022/01/30 02:04:30;;;;;;;;;;;6.00;98.00;;;;;;5024820;28;19995;-66
2022/01/30 02:07:26;;;;;;;;;;;6.00;98.10;;;;;;5007377;28;19913;-66
2022/01/30 02:09:45;;;;;;;;;;;6.00;98.00;;;;;;5024456;28;19917;-66
2022/01/30 02:12:17;;;;;;;;;;;6.00;97.90;;;;;;5023430;28;19937;-66
2022/01/30 02:27:58;;;;;;;;;;;5.90;98.10;;;;;;5023477;28;19976;-66
2022/01/30 02:30:28;;;;;;;;;;;5.80;98.20;;;;;;5024390;28;20259;-67
2022/01/30 02:32:55;;;;;;;;;;;5.80;98.10;;;;;;5024247;28;19916;-66
2022/01/30 02:35:20;;;;;;;;;;;5.90;97.90;;;;;;5024452;28;19980;-66
2022/01/30 02:37:48;;;;;;;;;;;5.90;97.90;;;;;;5055877;23;20227;-71
2022/01/30 02:40:13;;;;;;;;;;;5.90;98.10;;;;;;5019783;28;19910;-70
2022/01/30 02:42:45;;;;;;;;;;;5.90;97.80;;;;;;5031795;28;19952;-70
2022/01/30 02:45:13;;;;;;;;;;;5.90;97.60;;;;;;5024314;28;19923;-70
2022/01/30 02:47:52;;;;;;;;;;;5.90;97.00;;;;;;5023171;28;20216;-70
2022/01/30 02:50:49;;;;;;;;;;;5.90;97.10;;;;;;5024186;28;19956;-70
2022/01/30 02:53:09;;;;;;;;;;;5.90;96.60;;;;;;5023702;28;19924;-70
2022/01/30 02:55:35;;;;;;;;;;;6.00;96.70;;;;;;5022837;28;19910;-70
2022/01/30 02:58:01;;;;;;;;;;;5.90;96.70;;;;;;5004962;28;19917;-70
2022/01/30 03:00:27;;;;;;;;;;;5.90;96.90;;;;;;5016742;28;19948;-70
2022/01/30 03:02:52;;;;;;;;;;;5.90;96.40;;;;;;5023342;28;19917;-69
2022/01/30 03:05:19;;;;;;;;;;;6.00;96.30;;;;;;5023647;28;20119;-70
2022/01/30 03:07:44;;;;;;;;;;;6.00;96.30;;;;;;5022506;28;19917;-70
2022/01/30 03:10:11;;;;;;;;;;;6.00;96.10;;;;;;5023608;28;19937;-71
2022/01/30 03:12:37;;;;;;;;;;;6.00;96.30;;;;;;5021452;28;20196;-71
2022/01/30 03:15:04;;;;;;;;;;;6.00;96.20;;;;;;5022502;28;19910;-71
2022/01/30 03:17:29;;;;;;;;;;;6.10;96.10;;;;;;5023260;28;19916;-70
2022/01/30 03:19:55;;;;;;;;;;;6.10;96.10;;;;;;5023422;28;20212;-70
2022/01/30 03:22:22;;;;;;;;;;;6.10;95.70;;;;;;5023165;28;19949;-70
2022/01/30 03:24:47;;;;;;;;;;;6.10;96.10;;;;;;5022386;28;19909;-70
2022/01/30 03:27:14;;;;;;;;;;;6.20;95.90;;;;;;5023273;28;19920;-70
2022/01/30 03:29:41;;;;;;;;;;;6.20;95.90;;;;;;5023355;28;19909;-70
2022/01/30 03:32:07;;;;;;;;;;;6.20;95.80;;;;;;5021948;28;19917;-70
2022/01/30 03:34:33;;;;;;;;;;;6.20;95.80;;;;;;5038338;28;19910;-70
2022/01/30 03:36:59;;;;;;;;;;;6.10;95.00;;;;;;5021960;28;19909;-70
2022/01/30 03:39:24;;;;;;;;;;;6.10;95.00;;;;;;5021109;28;19971;-70
2022/01/30 03:41:50;;;;;;;;;;;6.10;94.90;;;;;;5022869;28;20204;-70
2022/01/30 03:44:16;;;;;;;;;;;6.10;94.90;;;;;;5023338;28;19918;-70
2022/01/30 03:46:42;;;;;;;;;;;6.20;94.70;;;;;;5005477;28;20247;-71
2022/01/30 03:49:07;;;;;;;;;;;6.10;95.00;;;;;;5022493;28;19996;-71
2022/01/30 03:51:33;;;;;;;;;;;6.10;95.00;;;;;;5021558;28;19910;-71
2022/01/30 03:53:59;;;;;;;;;;;6.10;95.10;;;;;;5005171;28;20204;-70
2022/01/30 03:56:24;;;;;;;;;;;6.00;95.30;;;;;;5021787;28;20043;-70
2022/01/30 03:58:50;;;;;;;;;;;6.10;94.80;;;;;;5021471;28;20017;-70
2022/01/30 04:01:16;;;;;;;;;;;6.10;94.70;;;;;;5022603;28;20183;-71
2022/01/30 04:03:41;;;;;;;;;;;6.00;94.90;;;;;;5022910;28;20357;-71
2022/01/30 04:06:09;;;;;;;;;;;6.10;94.50;;;;;;5021656;28;19920;-71
2022/01/30 04:08:35;;;;;;;;;;;6.00;94.50;;;;;;5022673;28;19910;-71
2022/01/30 04:11:01;;;;;;;;;;;6.00;94.90;;;;;;5022230;28;19909;-71
2022/01/30 04:13:27;;;;;;;;;;;6.00;94.70;;;;;;5021709;28;19918;-72
2022/01/30 04:15:53;;;;;;;;;;;5.90;94.70;;;;;;5022637;28;19909;-71
2022/01/30 04:18:18;;;;;;;;;;;6.00;94.60;;;;;;5022566;28;19914;-71
2022/01/30 04:20:44;;;;;;;;;;;6.00;94.50;;;;;;5022384;28;20202;-71
2022/01/30 04:23:10;;;;;;;;;;;6.00;94.70;;;;;;5022485;28;20202;-71
2022/01/30 04:25:36;;;;;;;;;;;6.00;94.50;;;;;;5022234;28;19921;-70
2022/01/30 04:28:01;;;;;;;;;;;6.00;94.30;;;;;;5022476;28;19972;-71
2022/01/30 04:30:27;;;;;;;;;;;6.00;94.30;;;;;;5022479;28;20242;-70
2022/01/30 04:32:53;;;;;;;;;;;6.00;94.20;;;;;;5022385;28;20175;-70
2022/01/30 04:35:24;;;;;;;;;;;6.00;94.60;;;;;;5021402;28;20200;-70
2022/01/30 05:01:55;;;;;;;;;;;6.00;92.40;;;;;;5022188;28;19913;-71
2022/01/30 05:04:44;;;;;;;;;;;6.00;92.60;;;;;;5035478;28;19944;-71
2022/01/30 05:09:36;;;;;;;;;;;6.00;91.70;;;;;;5022086;28;19909;-71
2022/01/30 05:12:01;;;;;;;;;;;6.00;91.40;;;;;;5022056;28;20377;-71
2022/01/30 05:14:33;;;;;;;;;;;6.00;90.90;;;;;;5022302;28;19910;-71
2022/01/30 05:16:59;;;;;;;;;;;6.00;90.10;;;;;;5022234;28;19909;-71
2022/01/30 05:19:25;;;;;;;;;;;6.00;89.00;;;;;;5021075;28;19981;-71
2022/01/30 05:21:51;;;;;;;;;;;6.00;90.00;;;;;;5020826;28;20175;-71
2022/01/30 05:24:17;;;;;;;;;;;6.00;86.80;;;;;;5020798;28;19909;-71
2022/01/30 05:26:44;;;;;;;;;;;6.00;87.30;;;;;;5022172;28;19913;-71
2022/01/30 05:29:10;;;;;;;;;;;6.00;87.60;;;;;;5004592;28;19910;-70
2022/01/30 05:31:35;;;;;;;;;;;5.90;88.70;;;;;;5021856;28;19955;-71
2022/01/30 05:34:01;;;;;;;;;;;5.90;87.00;;;;;;5004562;28;19985;-71
2022/01/30 05:36:27;;;;;;;;;;;5.90;87.70;;;;;;5025386;28;19980;-71
2022/01/30 05:38:53;;;;;;;;;;;5.80;87.70;;;;;;5024118;28;20201;-71
2022/01/30 05:41:19;;;;;;;;;;;5.80;85.90;;;;;;5024993;28;20009;-71
2022/01/30 05:43:52;;;;;;;;;;;5.80;85.60;;;;;;5025333;28;19956;-71
2022/01/30 05:46:29;;;;;;;;;;;5.90;86.10;;;;;;5025279;28;19913;-70
2022/01/30 05:48:55;;;;;;;;;;;5.80;84.90;;;;;;5024215;28;20219;-71
2022/01/30 05:51:21;;;;;;;;;;;5.80;85.20;;;;;;5040444;28;19921;-71
2022/01/30 05:53:47;;;;;;;;;;;5.70;84.00;;;;;;5025234;28;19956;-70
2022/01/30 05:56:12;;;;;;;;;;;5.60;84.00;;;;;;5025011;28;19910;-71
2022/01/30 05:58:39;;;;;;;;;;;5.60;84.40;;;;;;5024510;28;19909;-71
2022/01/30 06:01:05;;;;;;;;;;;5.50;85.00;;;;;;5023755;28;19913;-70
2022/01/30 06:03:30;;;;;;;;;;;5.40;84.70;;;;;;5024032;28;19959;-70
2022/01/30 06:05:56;;;;;;;;;;;5.30;83.50;;;;;;5025013;28;19930;-70
2022/01/30 06:11:09;;;;;;;;;;;5.20;84.60;;;;;;5004799;28;19910;-70
2022/01/30 06:13:35;;;;;;;;;;;5.10;82.40;;;;;;5004218;28;19976;-70
2022/01/30 06:16:01;;;;;;;;;;;5.10;82.10;;;;;;5020496;28;19917;-70
2022/01/30 06:18:27;;;;;;;;;;;5.10;83.50;;;;;;5005200;28;19918;-71
2022/01/30 06:20:52;;;;;;;;;;;5.00;83.00;;;;;;5003833;28;19918;-70
2022/01/30 06:23:18;;;;;;;;;;;5.00;83.30;;;;;;5003927;28;20505;-71
2022/01/30 06:25:44;;;;;;;;;;;5.00;82.20;;;;;;5004751;28;19913;-70
2022/01/30 06:28:09;;;;;;;;;;;4.90;80.70;;;;;;5004919;28;19910;-70
2022/01/30 06:30:35;;;;;;;;;;;4.90;80.30;;;;;;5004738;28;20144;-71
2022/01/30 06:33:01;;;;;;;;;;;5.00;80.90;;;;;;5004855;28;19952;-71
2022/01/30 06:35:26;;;;;;;;;;;4.90;81.60;;;;;;5004787;28;19963;-71
2022/01/30 06:37:52;;;;;;;;;;;4.90;82.10;;;;;;5004473;28;19984;-70
2022/01/30 06:40:18;;;;;;;;;;;4.80;81.70;;;;;;5016885;28;19909;-70
2022/01/30 06:42:44;;;;;;;;;;;4.80;82.60;;;;;;5023924;28;20109;-70
2022/01/30 06:45:09;;;;;;;;;;;4.80;82.00;;;;;;5039600;28;20089;-71
2022/01/30 06:47:42;;;;;;;;;;;4.80;82.50;;;;;;5022993;28;19913;-71
2022/01/30 06:50:08;;;;;;;;;;;4.80;82.40;;;;;;5023145;28;19916;-71
2022/01/30 06:52:34;;;;;;;;;;;4.80;83.30;;;;;;5023857;28;19917;-71
2022/01/30 06:54:59;;;;;;;;;;;4.80;82.60;;;;;;5023852;28;19909;-72
2022/01/30 06:57:25;;;;;;;;;;;4.70;83.10;;;;;;5023964;28;19909;-70
2022/01/30 06:59:50;;;;;;;;;;;4.70;83.70;;;;;;5023588;28;20195;-68
2022/01/30 07:02:16;;;;;;;;;;;4.60;83.80;;;;;;5023923;28;19925;-74
2022/01/30 07:04:42;;;;;;;;;;;4.90;84.80;;;;;;5022752;28;20124;-73
2022/01/30 07:07:08;;;;;;;;;;;4.90;86.00;;;;;;5022645;28;19914;-73
2022/01/30 07:09:33;;;;;;;;;;;4.90;83.70;;;;;;5022434;28;19909;-73
2022/01/30 07:11:59;;;;;;;;;;;4.80;84.20;;;;;;5022444;28;20186;-73
2022/01/30 07:14:25;;;;;;;;;;;4.70;84.10;;;;;;5022679;28;19917;-73
2022/01/30 07:16:50;;;;;;;;;;;4.60;84.40;;;;;;5023320;28;20348;-73
2022/01/30 07:19:16;;;;;;;;;;;4.60;83.50;;;;;;5022226;28;19921;-73
2022/01/30 07:21:42;;;;;;;;;;;4.60;83.90;;;;;;5018773;28;19980;-73
2022/01/30 07:24:08;;;;;;;;;;;4.60;83.50;;;;;;5003954;28;19910;-73
2022/01/30 07:26:34;;;;;;;;;;;4.60;83.20;;;;;;5003571;28;19989;-74
2022/01/30 07:29:00;;;;;;;;;;;4.60;83.40;;;;;;5002642;28;20023;-73
2022/01/30 07:31:25;;;;;;;;;;;4.60;82.90;;;;;;5002339;28;19910;-74
2022/01/30 07:33:51;;;;;;;;;;;4.50;83.40;;;;;;5002753;28;19925;-74
2022/01/30 07:36:17;;;;;;;;;;;4.50;83.10;;;;;;5002496;28;19913;-73
2022/01/30 07:38:43;;;;;;;;;;;4.60;82.40;;;;;;5003196;28;20213;-74
2022/01/30 07:41:09;;;;;;;;;;;4.60;82.80;;;;;;5021196;28;19917;-74
2022/01/30 07:43:34;;;;;;;;;;;4.50;82.60;;;;;;5022130;28;19925;-72
2022/01/30 07:46:01;;;;;;;;;;;4.50;83.00;;;;;;5023091;28;19913;-73
2022/01/30 07:48:27;;;;;;;;;;;4.50;83.10;;;;;;5005709;28;19929;-73
2022/01/30 07:50:53;;;;;;;;;;;4.50;82.80;;;;;;5019953;28;20117;-74
2022/01/30 07:53:19;;;;;;;;;;;4.60;82.90;;;;;;5022143;28;19971;-68
2022/01/30 07:55:44;;;;;;;;;;;4.50;82.50;;;;;;5022875;28;20116;-69
2022/01/30 07:58:10;;;;;;;;;;;4.50;82.90;;;;;;5021362;28;20148;-68
2022/01/30 08:00:37;;;;;;;;;;;4.50;82.00;;;;;;5021698;28;19984;-68
2022/01/30 08:03:03;;;;;;;;;;;4.50;81.90;;;;;;4982510;28;19921;-68
2022/01/30 08:05:29;;;;;;;;;;;4.60;81.70;;;;;;5003475;28;19980;-68
2022/01/30 08:07:54;;;;;;;;;;;4.60;81.90;;;;;;5003540;28;19910;-69
2022/01/30 08:10:20;;;;;;;;;;;4.60;82.10;;;;;;5010684;28;19913;-68
2022/01/30 08:12:46;;;;;;;;;;;4.60;82.40;;;;;;5022974;28;20116;-68
2022/01/30 08:15:12;;;;;;;;;;;4.70;82.30;;;;;;5002599;28;19910;-67
2022/01/30 08:17:38;;;;;;;;;;;4.70;81.30;;;;;;5003194;28;20278;-69
2022/01/30 08:20:05;;;;;;;;;;;4.70;81.70;;;;;;5003365;28;19949;-68
2022/01/30 08:22:32;;;;;;;;;;;4.80;81.60;;;;;;5002208;28;19918;-69
2022/01/30 08:24:57;;;;;;;;;;;4.80;81.60;;;;;;5003311;28;19917;-68
2022/01/30 08:27:23;;;;;;;;;;;4.80;81.70;;;;;;5003493;28;20200;-69
2022/01/30 08:29:49;;;;;;;;;;;4.80;81.70;;;;;;5002384;28;20104;-68
2022/01/30 08:32:15;;;;;;;;;;;4.90;81.70;;;;;;4985586;28;19917;-68
2022/01/30 08:34:40;;;;;;;;;;;4.90;81.00;;;;;;5003234;28;20219;-68
2022/01/30 08:37:06;;;;;;;;;;;4.80;81.70;;;;;;5002815;28;19940;-68
2022/01/30 08:39:33;;;;;;;;;;;4.90;81.20;;;;;;5002879;28;19918;-68
2022/01/30 08:41:58;;;;;;;;;;;5.00;80.60;;;;;;5021902;28;19909;-66
2022/01/30 08:44:24;;;;;;;;;;;5.00;80.50;;;;;;5022505;28;19980;-68
2022/01/30 08:46:50;;;;;;;;;;;5.00;80.50;;;;;;5022391;28;20119;-68
2022/01/30 08:49:16;;;;;;;;;;;5.00;80.70;;;;;;5022485;28;19976;-67
2022/01/30 08:51:41;;;;;;;;;;;5.00;80.90;;;;;;5022237;28;19917;-67
2022/01/30 08:54:07;;;;;;;;;;;5.00;81.20;;;;;;5022400;28;19915;-68
2022/01/30 08:56:33;;;;;;;;;;;5.00;81.10;;;;;;5022196;28;19913;-67
2022/01/30 08:58:58;;;;;;;;;;;5.00;80.30;;;;;;5022253;28;19910;-68
2022/01/30 09:01:24;;;;;;;;;;;5.10;81.30;;;;;;5021920;28;19917;-68
2022/01/30 09:03:50;;;;;;;;;;;5.20;79.10;;;;;;5022189;28;20171;-67
2022/01/30 09:06:16;;;;;;;;;;;5.30;79.00;;;;;;5022100;28;19913;-67
2022/01/30 09:08:42;;;;;;;;;;;5.30;79.70;;;;;;5022178;28;19916;-67
2022/01/30 09:11:08;;;;;;;;;;;5.30;80.30;;;;;;5023540;28;19981;-67
2022/01/30 09:13:34;;;;;;;;;;;5.40;80.40;;;;;;5017685;28;19916;-67
2022/01/30 09:16:01;;;;;;;;;;;5.50;79.20;;;;;;5020627;28;20223;-73
2022/01/30 09:18:27;;;;;;;;;;;5.60;79.80;;;;;;5013974;28;20213;-72
2022/01/30 09:20:52;;;;;;;;;;;5.70;77.90;;;;;;5005975;28;19917;-71
2022/01/30 09:23:18;;;;;;;;;;;5.70;78.10;;;;;;5016623;28;19913;-73
2022/01/30 09:25:45;;;;;;;;;;;5.70;78.40;;;;;;5024861;28;19956;-69
2022/01/30 09:28:10;;;;;;;;;;;5.70;78.30;;;;;;5024004;28;20120;-70
2022/01/30 09:30:36;;;;;;;;;;;5.70;79.20;;;;;;5025055;28;19928;-70
2022/01/30 09:33:02;;;;;;;;;;;5.70;78.90;;;;;;5025596;28;19944;-70
2022/01/30 09:35:29;;;;;;;;;;;5.60;79.80;;;;;;5024917;28;20470;-70
2022/01/30 09:37:55;;;;;;;;;;;5.70;81.30;;;;;;5024974;28;19980;-70
2022/01/30 09:40:21;;;;;;;;;;;5.60;81.20;;;;;;5025323;28;20152;-74
2022/01/30 09:42:47;;;;;;;;;;;5.60;82.20;;;;;;5024280;28;19917;-73
2022/01/30 09:45:13;;;;;;;;;;;5.60;80.80;;;;;;5024251;28;20132;-72
2022/01/30 09:47:40;;;;;;;;;;;5.60;81.20;;;;;;5023680;28;19913;-74
2022/01/30 09:50:09;;;;;;;;;;;5.70;81.20;;;;;;5023563;28;19913;-72
2022/01/30 09:52:36;;;;;;;;;;;5.70;80.00;;;;;;5023636;28;19914;-70
2022/01/30 09:55:04;;;;;;;;;;;5.60;79.90;;;;;;5007240;28;19984;-71
2022/01/30 09:57:29;;;;;;;;;;;5.70;79.30;;;;;;5023575;28;20212;-71
2022/01/30 09:59:56;;;;;;;;;;;5.80;79.20;;;;;;5024683;28;20020;-71
2022/01/30 10:02:25;;;;;;;;;;;5.80;78.10;;;;;;5023506;28;19956;-72
2022/01/30 10:04:52;;;;;;;;;;;5.90;77.60;;;;;;5024409;28;20033;-74
2022/01/30 10:07:20;;;;;;;;;;;5.90;76.50;;;;;;5023363;28;20265;-71
2022/01/30 10:09:48;;;;;;;;;;;5.90;76.50;;;;;;5024126;28;19999;-70
2022/01/30 10:12:28;;;;;;;;;;;6.00;75.60;;;;;;5006843;28;19909;-74
2022/01/30 10:15:03;;;;;;;;;;;6.20;75.60;;;;;;5022611;28;19909;-73
2022/01/30 10:17:28;;;;;;;;;;;6.20;72.80;;;;;;5024414;28;20295;-72
2022/01/30 10:20:01;;;;;;;;;;;6.30;74.10;;;;;;5023934;28;19909;-73
2022/01/30 10:22:27;;;;;;;;;;;6.30;73.10;;;;;;5024469;28;19913;-76
2022/01/30 10:24:53;;;;;;;;;;;6.30;72.10;;;;;;5007649;28;19916;-75
2022/01/30 10:27:20;;;;;;;;;;;6.30;71.20;;;;;;5024543;28;19932;-75
2022/01/30 10:29:46;;;;;;;;;;;6.40;71.70;;;;;;5006937;28;19909;-73
2022/01/30 10:32:11;;;;;;;;;;;6.40;72.60;;;;;;5006797;28;20101;-74
2022/01/30 10:34:38;;;;;;;;;;;6.40;71.70;;;;;;5024196;28;20136;-76
2022/01/30 10:37:22;;;;;;;;;;;6.40;72.50;;;;;;5023125;28;19920;-75
2022/01/30 10:40:23;;;;;;;;;;;6.40;72.60;;;;;;5006251;28;19910;-75
2022/01/30 10:42:52;;;;;;;;;;;6.30;71.80;;;;;;5035092;28;19914;-75
2022/01/30 10:45:26;;;;;;;;;;;6.20;74.20;;;;;;5023400;28;19910;-73
2022/01/30 10:48:16;;;;;;;;;;;6.20;74.20;;;;;;5006864;28;19969;-73
2022/01/30 10:50:44;;;;;;;;;;;6.10;74.10;;;;;;5022872;28;19940;-78
2022/01/30 10:53:25;;;;;;;;;;;6.20;75.80;;;;;;5021576;28;19916;-73
2022/01/30 10:55:51;;;;;;;;;;;6.10;76.20;;;;;;5024026;28;19917;-72
2022/01/30 10:58:19;;;;;;;;;;;6.20;75.80;;;;;;5001498;28;19918;-74
2022/01/30 11:00:55;;;;;;;;;;;6.10;77.00;;;;;;5018910;28;19953;-73
2022/01/30 11:03:41;;;;;;;;;;;6.10;77.20;;;;;;4986110;28;19910;-74
2022/01/30 11:06:11;;;;;;;;;;;6.10;78.20;;;;;;5019186;28;19960;-72
2022/01/30 11:08:40;;;;;;;;;;;6.10;76.80;;;;;;5002706;28;19921;-72
2022/01/30 11:11:13;;;;;;;;;;;6.10;77.50;;;;;;5002586;28;19925;-72
2022/01/30 11:14:00;;;;;;;;;;;6.10;79.00;;;;;;5015969;28;20151;-73
2022/01/30 11:19:11;;;;;;;;;;;6.00;78.80;;;;;;5002659;28;20164;-73
2022/01/30 11:21:37;;;;;;;;;;;5.90;79.00;;;;;;4985355;28;19956;-73
2022/01/30 11:24:03;;;;;;;;;;;6.00;78.60;;;;;;5007515;28;19952;-73
2022/01/30 11:26:29;;;;;;;;;;;5.90;78.00;;;;;;5002094;28;19914;-75
2022/01/30 11:28:55;;;;;;;;;;;5.80;78.10;;;;;;5001802;28;19916;-74
2022/01/30 11:31:21;;;;;;;;;;;5.80;78.60;;;;;;5001784;28;19928;-75
2022/01/30 11:33:47;;;;;;;;;;;5.80;79.60;;;;;;5001360;28;19918;-75
2022/01/30 11:36:12;;;;;;;;;;;5.90;78.60;;;;;;5002246;28;19917;-75
2022/01/30 11:38:40;;;;;;;;;;;6.00;76.60;;;;;;5001753;28;20016;-75
2022/01/30 11:41:16;;;;;;;;;;;6.00;75.80;;;;;;5001792;28;20227;-75
2022/01/30 11:44:16;;;;;;;;;;;6.10;75.90;;;;;;5002775;28;19917;-75
2022/01/30 11:46:52;;;;;;;;;;;6.10;75.50;;;;;;5035899;28;19914;-73
2022/01/30 11:49:17;;;;;;;;;;;6.00;75.10;;;;;;5022742;28;19916;-72
2022/01/30 11:51:54;;;;;;;;;;;6.00;75.10;;;;;;5021287;28;20094;-74
2022/01/30 11:54:40;;;;;;;;;;;6.00;75.10;;;;;;5004337;28;19997;-73
2022/01/30 11:57:18;;;;;;;;;;;6.00;75.20;;;;;;5021350;28;20143;-71
2022/01/30 11:59:44;;;;;;;;;;;6.00;73.80;;;;;;5022537;28;19909;-73
2022/01/30 12:02:27;;;;;;;;;;;6.10;74.80;;;;;;5022221;28;20168;-73
2022/01/30 12:04:57;;;;;;;;;;;6.20;73.80;;;;;;5037621;28;19910;-73
2022/01/30 12:07:48;;;;;;;;;;;6.20;72.40;;;;;;5005055;28;19964;-72
2022/01/30 12:10:24;;;;;;;;;;;6.20;71.30;;;;;;5021250;28;19910;-73
2022/01/30 12:12:59;;;;;;;;;;;6.30;71.80;;;;;;5021921;28;20000;-72
2022/01/30 12:15:45;;;;;;;;;;;6.40;71.70;;;;;;5020786;28;20151;-72
2022/01/30 12:18:14;;;;;;;;;;;6.40;71.10;;;;;;5004619;28;20111;-73
2022/01/30 12:21:05;;;;;;;;;;;6.40;72.50;;;;;;5022198;28;19968;-71
2022/01/30 12:23:38;;;;;;;;;;;6.50;70.10;;;;;;5020994;28;20204;-73
2022/01/30 12:26:14;;;;;;;;;;;6.60;70.60;;;;;;5004928;28;20151;-74
2022/01/30 12:28:50;;;;;;;;;;;6.70;69.30;;;;;;5022048;28;20130;-70
2022/01/30 12:31:25;;;;;;;;;;;6.90;69.00;;;;;;5020791;28;19964;-69
2022/01/30 12:34:15;;;;;;;;;;;6.90;69.20;;;;;;5022252;28;20282;-70
2022/01/30 12:36:43;;;;;;;;;;;6.80;69.40;;;;;;5021350;28;19917;-71
2022/01/30 12:39:15;;;;;;;;;;;6.80;69.70;;;;;;5004613;28;19921;-74
2022/01/30 12:41:41;;;;;;;;;;;6.90;68.90;;;;;;5020316;28;19909;-75
2022/01/30 12:44:11;;;;;;;;;;;6.80;68.60;;;;;;5005759;28;20208;-75
2022/01/30 12:46:48;;;;;;;;;;;6.90;68.10;;;;;;5010194;28;19929;-74
2022/01/30 12:49:17;;;;;;;;;;;7.30;68.10;;;;;;5006012;28;19917;-71
2022/01/30 12:52:05;;;;;;;;;;;7.60;66.30;;;;;;5004797;28;19916;-78
2022/01/30 12:54:39;;;;;;;;;;;7.70;67.60;;;;;;5005334;28;19925;-71
2022/01/30 12:57:06;;;;;;;;;;;7.80;65.50;;;;;;5004985;28;19910;-71
2022/01/30 12:59:31;;;;;;;;;;;7.80;65.50;;;;;;5005020;28;19925;-68
2022/01/30 13:02:07;;;;;;;;;;;7.80;66.60;;;;;;5005059;28;19909;-74
2022/01/30 13:04:33;;;;;;;;;;;8.10;65.30;;;;;;5005047;28;19916;-73
2022/01/30 13:06:59;;;;;;;;;;;8.20;63.30;;;;;;5004697;28;19941;-74
2022/01/30 13:09:30;;;;;;;;;;;8.50;61.00;;;;;;5004853;28;19910;-71
2022/01/30 13:12:00;;;;;;;;;;;8.60;60.40;;;;;;5022001;28;19917;-71
2022/01/30 13:14:33;;;;;;;;;;;9.40;57.90;;;;;;5024427;28;20065;-72
2022/01/30 13:16:59;;;;;;;;;;;10.70;52.30;;;;;;5039907;28;19910;-72
2022/01/30 13:19:32;;;;;;;;;;;11.10;49.10;;;;;;5023625;28;19917;-76
2022/01/30 13:21:57;;;;;;;;;;;10.30;51.10;;;;;;5024804;28;19909;-76
2022/01/30 13:24:23;;;;;;;;;;;9.70;53.10;;;;;;5007355;28;19916;-74
2022/01/30 13:26:57;;;;;;;;;;;9.50;53.90;;;;;;5023969;28;20263;-72
2022/01/30 13:29:23;;;;;;;;;;;10.60;51.50;;;;;;5025224;28;19909;-77
2022/01/30 13:31:50;;;;;;;;;;;12.00;47.00;;;;;;5023029;28;20232;-67
2022/01/30 13:34:17;;;;;;;;;;;11.90;46.00;;;;;;5025251;28;19917;-68
2022/01/30 13:36:43;;;;;;;;;;;11.00;47.50;;;;;;5025361;28;20208;-67
2022/01/30 13:39:11;;;;;;;;;;;11.20;47.90;;;;;;5025060;28;20200;-67
2022/01/30 13:41:46;;;;;;;;;;;10.70;48.40;;;;;;5023992;28;20184;-71
2022/01/30 13:44:23;;;;;;;;;;;10.20;49.00;;;;;;5024770;28;19931;-71
2022/01/30 13:46:58;;;;;;;;;;;10.00;49.50;;;;;;5022847;28;19921;-71
2022/01/30 13:49:25;;;;;;;;;;;9.80;51.00;;;;;;5024027;28;20112;-73
2022/01/30 13:52:08;;;;;;;;;;;9.70;50.20;;;;;;5023713;28;19956;-74
2022/01/30 13:54:33;;;;;;;;;;;9.00;52.30;;;;;;5023768;28;19916;-69
2022/01/30 13:57:01;;;;;;;;;;;8.80;52.90;;;;;;5023947;28;19909;-71
2022/01/30 13:59:27;;;;;;;;;;;8.70;53.50;;;;;;5023883;28;19917;-70
2022/01/30 14:01:58;;;;;;;;;;;8.50;53.90;;;;;;5024577;28;19909;-71
2022/01/30 14:04:24;;;;;;;;;;;8.30;55.10;;;;;;5024746;28;20224;-70
2022/01/30 14:06:50;;;;;;;;;;;8.30;55.70;;;;;;5023425;28;19913;-70
2022/01/30 14:09:19;;;;;;;;;;;8.00;55.80;;;;;;5024490;28;19910;-70
2022/01/30 14:11:52;;;;;;;;;;;7.90;56.20;;;;;;5024427;28;19915;-69
2022/01/30 14:14:20;;;;;;;;;;;7.80;56.20;;;;;;5024885;28;19947;-72
2022/01/30 14:16:52;;;;;;;;;;;7.80;55.60;;;;;;5023581;28;19918;-71
2022/01/30 14:19:29;;;;;;;;;;;7.90;55.80;;;;;;5024586;28;19913;-73
2022/01/30 14:22:12;;;;;;;;;;;7.80;56.10;;;;;;5022648;28;19917;-74
2022/01/30 14:24:46;;;;;;;;;;;7.80;56.90;;;;;;5039511;28;19916;-72
2022/01/30 14:27:12;;;;;;;;;;;7.60;57.70;;;;;;5023073;28;20301;-72
2022/01/30 14:29:39;;;;;;;;;;;7.70;57.10;;;;;;5022715;28;19914;-73
2022/01/30 14:32:09;;;;;;;;;;;7.60;57.70;;;;;;5006575;28;19918;-73
2022/01/30 14:34:35;;;;;;;;;;;7.60;57.20;;;;;;5022978;28;19973;-73
2022/01/30 14:37:02;;;;;;;;;;;7.60;57.50;;;;;;5023809;28;20459;-73
2022/01/30 14:39:29;;;;;;;;;;;7.40;56.80;;;;;;5022943;28;19909;-73
2022/01/30 14:41:56;;;;;;;;;;;7.40;56.30;;;;;;5022043;28;20040;-73
2022/01/30 14:44:21;;;;;;;;;;;7.40;56.90;;;;;;5023978;28;19917;-74
2022/01/30 14:46:47;;;;;;;;;;;7.30;58.30;;;;;;5022343;28;19913;-74
2022/01/30 14:49:13;;;;;;;;;;;7.10;58.50;;;;;;5022734;28;20016;-74
2022/01/30 14:51:39;;;;;;;;;;;7.00;59.50;;;;;;5039021;28;19916;-73
2022/01/30 14:54:04;;;;;;;;;;;7.00;60.30;;;;;;5023534;28;19921;-73
2022/01/30 14:56:30;;;;;;;;;;;6.90;60.10;;;;;;5022462;28;20032;-73
2022/01/30 14:58:56;;;;;;;;;;;6.90;60.20;;;;;;5022421;28;19933;-70
2022/01/30 15:01:22;;;;;;;;;;;6.80;60.20;;;;;;5026452;28;19918;-84
2022/01/30 15:03:47;;;;;;;;;;;6.80;59.80;;;;;;5008073;28;20205;-71
2022/01/30 15:06:13;;;;;;;;;;;6.70;59.60;;;;;;5009850;28;20213;-72
2022/01/30 15:08:39;;;;;;;;;;;6.70;59.80;;;;;;5001660;28;20141;-73
2022/01/30 15:11:05;;;;;;;;;;;6.60;59.70;;;;;;5011355;28;19909;-72
2022/01/30 15:13:35;;;;;;;;;;;6.50;60.80;;;;;;5005831;28;20121;-72
2022/01/30 15:16:06;;;;;;;;;;;6.40;61.10;;;;;;5037569;28;19921;-72
2022/01/30 15:18:35;;;;;;;;;;;6.40;61.80;;;;;;5022873;28;19976;-72
2022/01/30 15:21:01;;;;;;;;;;;6.40;61.60;;;;;;5021830;28;19932;-72
2022/01/30 15:23:28;;;;;;;;;;;6.20;60.70;;;;;;5023085;28;19918;-72
2022/01/30 15:25:53;;;;;;;;;;;6.20;61.20;;;;;;5022940;28;19916;-71
2022/01/30 15:28:26;;;;;;;;;;;6.20;61.00;;;;;;5113115;27;19916;-72
2022/01/30 15:30:52;;;;;;;;;;;6.20;62.00;;;;;;5101563;28;20233;-71
2022/01/30 15:33:18;;;;;;;;;;;6.20;61.80;;;;;;5098814;28;19917;-72
2022/01/30 15:35:47;;;;;;;;;;;6.10;61.50;;;;;;5101206;28;19920;-80